Time;durP1;ratioP1;P1;durP2;ratioP2;P2;SDS_P1;SDS_P2;PMS_P1;PMS_P2;Temp;Humidity;BMP_temperature;BMP_pressure;BME280_temperature;BME280_humidity;BME280_pressure;Samples;Min_cycle;Max_cycle;Signal;HPM_P1;HPM_P2
2022/01/03 00:02:03;;;;;;;25.73;13.93;;;;;;;3.48;100.00;95129.22;10403820;28;20022;-76
2022/01/03 00:07:04;;;;;;;25.25;13.38;;;;;;;3.31;100.00;95134.28;10395108;28;20111;-76
2022/01/03 00:12:05;;;;;;;24.50;12.88;;;;;;;3.25;100.00;95119.19;10402927;28;20037;-75
2022/01/03 00:17:06;;;;;;;27.27;14.05;;;;;;;3.22;100.00;95119.63;10401921;28;20411;-77
2022/01/03 00:22:11;;;;;;;15.90;9.13;;;;;;;3.20;100.00;95111.88;10367403;28;20030;-76
2022/01/03 00:27:15;;;;;;;14.77;9.13;;;;;;;2.99;100.00;95109.63;10384691;28;20040;-77
2022/01/03 00:32:16;;;;;;;19.85;9.88;;;;;;;2.78;100.00;95098.34;10401367;28;20072;-72
2022/01/03 00:37:18;;;;;;;16.92;9.60;;;;;;;2.60;100.00;95095.59;10382788;28;20136;-77
2022/01/03 00:42:19;;;;;;;16.02;9.18;;;;;;;2.62;100.00;95091.69;10398719;28;20029;-72
2022/01/03 00:47:20;;;;;;;19.33;9.65;;;;;;;2.66;100.00;95100.03;10399369;28;20033;-75
2022/01/03 00:52:20;;;;;;;18.83;9.60;;;;;;;2.83;100.00;95114.44;10384159;28;20064;-79
2022/01/03 00:57:34;;;;;;;18.95;9.50;;;;;;;2.84;100.00;95117.88;10399031;28;20503;-76
2022/01/03 01:02:37;;;;;;;25.33;10.88;;;;;;;2.48;100.00;95095.47;10383065;28;20029;-74
2022/01/03 01:07:39;;;;;;;23.70;11.05;;;;;;;2.39;100.00;95086.94;10399461;28;20510;-76
2022/01/03 01:12:43;;;;;;;20.30;10.35;;;;;;;2.36;100.00;95074.91;10431532;28;20036;-73
2022/01/03 01:17:45;;;;;;;22.10;11.55;;;;;;;2.54;100.00;95060.94;10425164;28;20040;-76
2022/01/03 01:22:46;;;;;;;20.48;10.57;;;;;;;2.37;100.00;95051.84;10422643;28;20438;-75
2022/01/03 01:27:50;;;;;;;25.55;11.55;;;;;;;2.38;100.00;95066.75;10399977;28;20056;-74
2022/01/03 01:32:59;;;;;;;26.60;12.15;;;;;;;2.37;100.00;95067.75;10384091;28;20025;-75
2022/01/03 01:38:01;;;;;;;23.38;11.93;;;;;;;2.48;100.00;95056.47;10399281;28;20416;-74
2022/01/03 01:43:02;;;;;;;20.58;11.32;;;;;;;2.48;100.00;95055.66;10398638;28;20116;-74
2022/01/03 01:48:04;;;;;;;25.98;13.18;;;;;;;2.33;100.00;95055.94;10382457;28;20490;-78
2022/01/03 01:53:05;;;;;;;23.10;11.48;;;;;;;2.34;100.00;95052.28;10401565;28;20048;-75
2022/01/03 01:58:23;;;;;;;23.85;14.02;;;;;;;2.40;100.00;95048.78;10407652;28;20033;-78
2022/01/03 02:03:33;;;;;;;24.42;12.70;;;;;;;2.41;100.00;95045.09;10406314;28;20451;-72
2022/01/03 02:08:44;;;;;;;26.70;14.73;;;;;;;2.41;100.00;95036.34;10406098;28;20495;-74
2022/01/03 02:13:46;;;;;;;25.00;14.35;;;;;;;2.39;100.00;95036.56;10390142;28;20037;-70
2022/01/03 02:18:47;;;;;;;34.17;14.82;;;;;;;2.41;100.00;95013.25;10392334;28;20042;-71
2022/01/03 02:23:48;;;;;;;29.20;16.23;;;;;;;2.40;100.00;94995.75;10424888;28;20033;-73
2022/01/03 02:28:48;;;;;;;30.92;13.93;;;;;;;2.45;100.00;94989.78;10432255;28;20078;-78
2022/01/03 02:33:49;;;;;;;27.17;13.15;;;;;;;2.54;100.00;94983.16;10429180;28;20059;-74
2022/01/03 02:38:51;;;;;;;29.88;14.32;;;;;;;2.65;100.00;94986.97;10428695;28;20057;-79
2022/01/03 02:43:52;;;;;;;25.60;13.55;;;;;;;2.83;100.00;94987.03;10428802;28;20033;-73
2022/01/03 02:48:52;;;;;;;23.52;12.68;;;;;;;2.95;100.00;95007.53;10428888;28;20028;-74
2022/01/03 02:53:53;;;;;;;28.15;13.27;;;;;;;3.04;100.00;94990.28;10428170;28;20478;-75
2022/01/03 02:58:53;;;;;;;22.08;11.55;;;;;;;3.01;100.00;94996.03;10427164;28;20075;-71
2022/01/03 03:03:54;;;;;;;26.58;12.05;;;;;;;2.94;100.00;94982.03;10410848;28;20443;-75
2022/01/03 03:08:54;;;;;;;22.35;10.77;;;;;;;3.04;100.00;94977.84;10446679;28;20040;-80
2022/01/03 03:13:55;;;;;;;23.23;11.73;;;;;;;3.12;100.00;94959.97;10428940;28;20569;-75
2022/01/03 03:18:55;;;;;;;19.35;10.50;;;;;;;3.12;100.00;94963.44;10443952;28;20025;-78
2022/01/03 03:23:59;;;;;;;22.98;11.68;;;;;;;3.19;100.00;94963.38;10426700;28;20147;-73
2022/01/03 03:28:59;;;;;;;20.98;11.23;;;;;;;3.14;100.00;94976.50;10449953;28;20547;-71
2022/01/03 03:34:00;;;;;;;20.17;10.15;;;;;;;3.15;100.00;94975.47;10416028;28;20025;-76
2022/01/03 03:39:03;;;;;;;25.08;10.70;;;;;;;3.01;100.00;94972.94;10424580;28;20051;-80
2022/01/03 03:44:04;;;;;;;24.40;12.70;;;;;;;2.74;100.00;94967.09;10424640;28;20028;-72
2022/01/03 03:49:09;;;;;;;25.35;12.27;;;;;;;2.66;100.00;94957.56;10424272;28;20033;-78
2022/01/03 03:54:10;;;;;;;26.88;13.30;;;;;;;2.77;100.00;94968.50;10424608;28;20456;-69
2022/01/03 03:59:11;;;;;;;23.35;12.07;;;;;;;2.83;100.00;94960.47;10442813;28;20029;-77
2022/01/03 04:04:11;;;;;;;25.33;13.00;;;;;;;2.85;100.00;94955.75;10424667;28;20105;-78
2022/01/03 04:09:12;;;;;;;26.65;11.57;;;;;;;2.96;100.00;94950.75;10424801;28;20532;-78
2022/01/03 04:14:13;;;;;;;27.63;13.48;;;;;;;2.93;100.00;94945.88;10423451;28;20118;-74
2022/01/03 04:19:13;;;;;;;22.58;11.70;;;;;;;2.88;100.00;94965.94;10422612;28;20021;-71
2022/01/03 04:24:14;;;;;;;21.35;11.63;;;;;;;2.98;100.00;94977.91;10425265;28;20065;-75
2022/01/03 04:29:15;;;;;;;25.88;12.88;;;;;;;2.99;100.00;94960.94;10422508;28;20029;-76
2022/01/03 04:34:15;;;;;;;25.77;11.88;;;;;;;2.88;100.00;94947.34;10441185;28;20041;-76
2022/01/03 04:39:16;;;;;;;30.65;13.90;;;;;;;2.91;100.00;94960.16;10387060;28;1188300;-76
2022/01/03 04:44:16;;;;;;;24.60;12.77;;;;;;;2.98;100.00;94965.41;10445535;28;20029;-75
2022/01/03 04:49:17;;;;;;;29.65;12.80;;;;;;;3.01;100.00;94958.88;10424661;28;20832;-78
2022/01/03 04:54:19;;;;;;;23.83;11.90;;;;;;;2.82;100.00;94966.81;10426559;28;20083;-78
2022/01/03 04:59:20;;;;;;;26.35;12.07;;;;;;;2.77;100.00;94982.56;10400085;28;20479;-73
2022/01/03 05:04:20;;;;;;;31.02;14.13;;;;;;;2.50;100.00;94984.66;10402126;28;20368;-76
2022/01/03 05:09:21;;;;;;;31.25;14.00;;;;;;;2.41;100.00;94994.69;10444733;28;20441;-78
2022/01/03 05:14:21;;;;;;;33.35;13.50;;;;;;;2.41;100.00;94996.53;10422436;28;20128;-71
2022/01/03 05:19:22;;;;;;;28.05;12.90;;;;;;;2.52;100.00;94971.97;10399949;28;20091;-79
2022/01/03 05:24:22;;;;;;;33.72;17.00;;;;;;;2.56;100.00;94981.91;10383811;28;20507;-78
2022/01/03 05:29:23;;;;;;;36.00;13.95;;;;;;;2.57;100.00;94974.78;10402885;28;20503;-76
2022/01/03 05:34:23;;;;;;;28.70;15.50;;;;;;;2.66;100.00;94972.66;10446465;28;20646;-76
2022/01/03 05:39:24;;;;;;;26.30;13.52;;;;;;;2.76;100.00;94972.97;10431644;28;20561;-78
2022/01/03 05:44:25;;;;;;;30.27;13.73;;;;;;;2.85;100.00;94960.25;10431287;28;20593;-77
2022/01/03 05:49:25;;;;;;;22.10;11.73;;;;;;;2.93;100.00;94975.06;10448851;28;20021;-76
2022/01/03 05:54:26;;;;;;;20.80;11.73;;;;;;;2.96;100.00;94978.13;10415067;28;20024;-73
2022/01/03 05:59:27;;;;;;;26.30;12.30;;;;;;;3.02;100.00;94971.91;10429475;28;20025;-77
2022/01/03 06:04:40;;;;;;;23.98;11.50;;;;;;;3.02;100.00;94969.25;10444835;28;20025;-78
2022/01/03 06:09:42;;;;;;;21.75;10.80;;;;;;;3.06;100.00;94972.31;10430649;28;20059;-84
2022/01/03 06:14:46;;;;;;;26.88;9.88;;;;;;;3.15;100.00;94978.13;10410850;28;20089;-77
2022/01/03 06:19:47;;;;;;;25.52;10.75;;;;;;;3.10;100.00;94984.13;10444722;28;20481;-74
2022/01/03 06:24:48;;;;;;;23.27;10.63;;;;;;;3.17;100.00;94984.84;10429201;28;20032;-74
2022/01/03 06:29:48;;;;;;;24.65;10.27;;;;;;;3.27;100.00;94994.97;10413089;28;20025;-77
2022/01/03 06:34:49;;;;;;;22.65;10.93;;;;;;;3.38;100.00;94993.41;10405976;28;20025;-78
2022/01/03 06:39:53;;;;;;;19.55;11.02;;;;;;;3.37;100.00;94981.16;10404421;28;20052;-79
2022/01/03 06:44:54;;;;;;;20.27;11.85;;;;;;;3.47;100.00;94980.66;10404708;28;20500;-73
2022/01/03 06:49:54;;;;;;;27.90;12.85;;;;;;;3.46;100.00;94986.97;10389097;28;20021;-77
2022/01/03 06:54:55;;;;;;;27.30;12.32;;;;;;;3.56;100.00;94976.66;10403711;28;20029;-77
2022/01/03 06:59:56;;;;;;;34.08;13.38;;;;;;;3.48;100.00;94963.69;10386039;28;20025;-72
2022/01/03 07:04:56;;;;;;;22.23;12.82;;;;;;;3.55;100.00;94978.50;10402723;28;20094;-71
2022/01/03 07:09:56;;;;;;;21.42;12.68;;;;;;;3.71;100.00;94974.44;10384453;28;20121;-78
2022/01/03 07:19:59;;;;;;;29.15;13.35;;;;;;;3.86;100.00;94971.34;10403339;28;20132;-75
2022/01/03 07:25:00;;;;;;;20.95;10.50;;;;;;;3.84;100.00;94964.66;10426296;28;20012;-77
2022/01/03 07:30:00;;;;;;;24.90;12.63;;;;;;;3.84;100.00;94968.13;10425926;28;20029;-75
2022/01/03 07:35:01;;;;;;;19.65;11.25;;;;;;;3.99;100.00;94943.78;10410009;28;20451;-74
2022/01/03 07:40:01;;;;;;;21.48;10.80;;;;;;;4.24;100.00;94940.97;10425727;28;20469;-79
2022/01/03 07:45:02;;;;;;;20.17;10.70;;;;;;;4.59;100.00;94936.72;10425363;28;20063;-82
2022/01/03 07:50:04;;;;;;;17.67;8.30;;;;;;;4.92;100.00;94951.31;10424826;28;20481;-79
2022/01/03 07:55:06;;;;;;;15.48;9.05;;;;;;;5.08;100.00;94947.13;10424095;28;20032;-78
2022/01/03 08:00:10;;;;;;;30.90;11.60;;;;;;;5.22;100.00;94956.53;10424815;28;20035;-78
2022/01/03 08:05:13;;;;;;;21.48;10.82;;;;;;;5.56;100.00;94947.88;10424896;28;20604;-75
2022/01/03 08:10:15;;;;;;;33.53;11.85;;;;;;;5.93;100.00;94940.34;10424419;28;20025;-76
2022/01/03 08:15:15;;;;;;;22.80;10.65;;;;;;;6.28;100.00;94952.72;10426621;28;20417;-74
2022/01/03 08:20:16;;;;;;;21.48;11.57;;;;;;;6.81;100.00;94941.81;10424285;28;20027;-74
2022/01/03 08:25:16;;;;;;;23.40;10.55;;;;;;;7.09;100.00;94943.56;10424271;28;20017;-73
2022/01/03 08:30:17;;;;;;;16.05;9.85;;;;;;;7.60;100.00;94945.28;10424028;28;20024;-79
2022/01/03 08:35:18;;;;;;;17.63;10.15;;;;;;;8.13;100.00;94943.72;10424117;28;20411;-73
2022/01/03 08:40:19;;;;;;;19.02;9.48;;;;;;;8.82;100.00;94933.38;10424343;28;20033;-75
2022/01/03 08:45:20;;;;;;;20.27;9.75;;;;;;;9.25;100.00;94931.50;10422788;28;20116;-78
2022/01/03 08:50:20;;;;;;;29.05;10.27;;;;;;;9.91;100.00;94911.41;10423421;28;20025;-74
2022/01/03 08:55:21;;;;;;;21.30;10.45;;;;;;;9.97;100.00;94898.81;10424153;28;20132;-78
2022/01/03 09:00:22;;;;;;;25.88;12.07;;;;;;;9.57;100.00;94885.81;10423730;28;20029;-76
2022/01/03 09:05:22;;;;;;;23.70;12.35;;;;;;;9.41;100.00;94874.19;10429538;28;20032;-74
2022/01/03 09:10:23;;;;;;;21.40;11.30;;;;;;;9.99;100.00;94870.63;10432837;28;20115;-79
2022/01/03 09:15:24;;;;;;;21.60;11.77;;;;;;;10.48;100.00;94868.53;10431175;28;20070;-74
2022/01/03 09:20:24;;;;;;;24.65;10.57;;;;;;;11.39;100.00;94893.66;10448686;28;20025;-72
2022/01/03 09:30:37;;;;;;;24.15;11.98;;;;;;;11.82;100.00;94854.72;10447534;28;20033;-77
2022/01/03 09:35:40;;;;;;;21.05;11.25;;;;;;;12.70;95.10;94858.44;10413527;28;20045;-73
2022/01/03 09:40:41;;;;;;;21.67;11.43;;;;;;;12.74;87.62;94845.19;10432794;28;20029;-75
2022/01/03 09:45:46;;;;;;;18.73;10.13;;;;;;;12.35;89.86;94833.41;10429879;28;20035;-73
2022/01/03 09:50:48;;;;;;;20.27;9.15;;;;;;;12.28;90.68;94819.44;10429541;28;20032;-73
2022/01/03 09:55:49;;;;;;;25.60;11.20;;;;;;;12.38;92.31;94815.88;10428979;28;20037;-73
2022/01/03 10:00:49;;;;;;;21.77;11.25;;;;;;;13.14;87.60;94791.91;10428561;28;20033;-72
2022/01/03 10:05:50;;;;;;;21.48;11.63;;;;;;;13.56;77.93;94792.22;10406477;28;20018;-75
2022/01/03 10:10:52;;;;;;;20.75;11.40;;;;;;;13.72;77.38;94788.25;10411288;28;20037;-74
2022/01/03 10:15:52;;;;;;;29.52;12.73;;;;;;;13.38;76.83;94786.53;10405316;28;20033;-75
2022/01/03 10:20:54;;;;;;;16.85;9.68;;;;;;;13.57;77.40;94774.94;10407170;28;20556;-76
2022/01/03 10:26:17;;;;;;;22.08;11.43;;;;;;;13.23;79.17;94762.38;10406026;28;20574;-75
2022/01/03 10:31:22;;;;;;;23.73;12.32;;;;;;;13.64;75.97;94754.56;10389063;28;20025;-72
2022/01/03 10:36:27;;;;;;;29.65;12.38;;;;;;;14.30;71.97;94746.56;10421941;28;20083;-71
2022/01/03 10:41:28;;;;;;;25.30;11.18;;;;;;;14.86;65.57;94733.94;10403689;28;20112;-73
2022/01/03 10:46:31;;;;;;;24.47;11.63;;;;;;;14.68;64.02;94729.44;10404733;28;20503;-78
2022/01/03 10:51:31;;;;;;;20.27;11.10;;;;;;;13.62;71.31;94713.56;10403913;28;20284;-72
2022/01/03 10:56:38;;;;;;;21.85;11.68;;;;;;;14.23;73.45;94708.28;10402894;28;20040;-71
2022/01/03 11:01:40;;;;;;;22.08;12.65;;;;;;;14.47;66.37;94694.63;10402929;28;20024;-71
2022/01/03 11:11:46;;;;;;;17.13;8.98;;;;;;;14.24;66.84;94677.44;10404882;28;20025;-71
2022/01/03 11:16:46;;;;;;;23.20;10.98;;;;;;;14.28;67.78;94680.38;10395917;28;20033;-73
2022/01/03 11:21:46;;;;;;;17.98;10.80;;;;;;;14.28;70.23;94677.66;10385585;28;20052;-73
2022/01/03 11:26:48;;;;;;;14.48;8.68;;;;;;;14.75;64.35;94658.69;10384066;28;20423;-72
2022/01/03 11:31:52;;;;;;;18.15;9.38;;;;;;;16.81;56.59;94638.31;10384769;28;20037;-73
2022/01/03 11:36:52;;;;;;;17.30;8.02;;;;;;;17.58;50.95;94627.09;10405307;28;20049;-73
2022/01/03 11:41:53;;;;;;;16.13;8.85;;;;;;;18.45;48.17;94626.97;10402294;28;20490;-73
2022/01/03 11:46:54;;;;;;;17.15;8.85;;;;;;;17.81;50.53;94622.31;10402791;28;20598;-74
2022/01/03 11:52:01;;;;;;;16.13;8.65;;;;;;;18.65;48.36;94618.41;10400833;28;20603;-78
2022/01/03 11:57:12;;;;;;;13.95;7.78;;;;;;;18.59;46.51;94612.38;10400546;28;20201;-72
2022/01/03 12:08:02;;;;;;;33.88;8.70;;;;;;;17.00;49.96;94594.66;10401734;28;20021;-73
2022/01/03 12:13:02;;;;;;;17.30;9.30;;;;;;;14.85;60.51;94605.16;10384311;28;20025;-73
2022/01/03 12:18:03;;;;;;;18.63;10.60;;;;;;;14.34;68.42;94606.16;10399425;28;20446;-73
2022/01/03 12:23:04;;;;;;;23.05;10.90;;;;;;;13.79;70.03;94605.00;10399938;28;20021;-72
2022/01/03 12:28:10;;;;;;;18.33;9.73;;;;;;;13.00;77.99;94608.34;10382906;28;20037;-76
2022/01/03 12:33:12;;;;;;;27.08;11.63;;;;;;;13.15;79.34;94602.72;10400527;28;20545;-73
2022/01/03 12:38:20;;;;;;;25.60;12.35;;;;;;;12.63;83.77;94602.63;10398428;28;20057;-77
2022/01/03 12:43:40;;;;;;;21.95;11.25;;;;;;;12.37;86.76;94604.03;10398514;28;20038;-74
2022/01/03 12:48:40;;;;;;;21.85;10.95;;;;;;;12.12;91.34;94590.53;10398737;28;20061;-71
2022/01/03 12:53:47;;;;;;;21.83;10.85;;;;;;;12.17;90.69;94578.09;10399587;28;20132;-78
2022/01/03 12:58:55;;;;;;;27.13;12.00;;;;;;;12.28;92.53;94569.63;10397810;28;20072;-75
2022/01/03 13:04:18;;;;;;;22.42;10.88;;;;;;;12.22;91.24;94568.06;10398849;28;20026;-74
2022/01/03 13:09:19;;;;;;;34.50;11.13;;;;;;;12.24;90.98;94559.72;10398315;28;20407;-72
2022/01/03 13:14:21;;;;;;;24.80;11.15;;;;;;;12.18;93.98;94559.00;10398385;28;20025;-79
2022/01/03 13:19:25;;;;;;;30.25;12.77;;;;;;;11.93;91.02;94555.44;10398249;28;20036;-72
2022/01/03 13:24:46;;;;;;;21.15;12.15;;;;;;;11.74;92.43;94549.97;10397769;28;20034;-73
2022/01/03 13:29:55;;;;;;;23.08;10.95;;;;;;;11.78;95.38;94553.72;10406293;28;20535;-76
2022/01/03 13:34:57;;;;;;;28.20;12.30;;;;;;;11.95;92.69;94555.19;10422053;28;20041;-77
2022/01/03 13:40:01;;;;;;;22.42;11.02;;;;;;;12.00;91.52;94557.03;10421598;28;20573;-77
2022/01/03 13:49:11;;;;;;;29.65;12.75;;;;;;;11.79;93.70;94571.47;10421983;28;20029;-72
2022/01/03 13:50:31;;;;;;;26.10;11.45;;;;;;;11.67;95.02;94560.28;10431192;28;20406;-73
2022/01/03 13:55:36;;;;;;;23.02;11.82;;;;;;;11.59;95.01;94559.00;10410966;28;20093;-72
2022/01/03 14:00:48;;;;;;;23.67;12.57;;;;;;;11.30;100.00;94569.75;10430341;28;20036;-76
2022/01/03 14:05:49;;;;;;;25.13;11.77;;;;;;;11.26;99.14;94566.84;10428846;28;20455;-73
2022/01/03 14:10:50;;;;;;;26.25;12.88;;;;;;;11.32;99.48;94561.44;10428806;28;20028;-78
2022/01/03 14:16:09;;;;;;;33.05;13.15;;;;;;;11.08;100.00;94565.63;10444900;28;20462;-72
2022/01/03 14:21:15;;;;;;;22.67;11.05;;;;;;;10.94;100.00;94564.66;10412819;28;20029;-73
2022/01/03 14:26:32;;;;;;;22.02;10.57;;;;;;;10.88;100.00;94573.81;10427629;28;20377;-72
2022/01/03 14:31:38;;;;;;;22.83;10.05;;;;;;;10.77;100.00;94576.59;10427759;28;20033;-73
2022/01/03 14:36:41;;;;;;;23.05;12.00;;;;;;;10.71;100.00;94582.25;10417985;28;20064;-73
2022/01/03 14:41:42;;;;;;;26.75;11.70;;;;;;;10.56;100.00;94583.13;10419445;28;20515;-72
2022/01/03 14:46:44;;;;;;;27.02;14.25;;;;;;;10.40;100.00;94575.16;10402739;28;20022;-73
2022/01/03 14:51:48;;;;;;;36.15;16.55;;;;;;;10.41;100.00;94565.22;10407858;28;20016;-73
2022/01/03 14:56:51;;;;;;;41.22;15.13;;;;;;;10.41;100.00;94562.53;10409825;28;20532;-75
2022/01/03 15:01:54;;;;;;;41.72;17.77;;;;;;;10.35;100.00;94571.69;10412778;28;20029;-72
2022/01/03 15:06:55;;;;;;;35.42;17.05;;;;;;;10.31;100.00;94560.69;10401853;28;20029;-73
2022/01/03 15:11:56;;;;;;;45.88;19.92;;;;;;;10.25;100.00;94569.81;10400213;28;20470;-72
2022/01/03 15:16:56;;;;;;;43.92;19.40;;;;;;;10.13;100.00;94572.00;10401498;28;20028;-73
2022/01/03 15:21:56;;;;;;;42.30;21.15;;;;;;;10.03;100.00;94573.66;10371546;28;20032;-71
2022/01/03 15:26:57;;;;;;;43.87;17.87;;;;;;;9.97;100.00;94572.06;10433180;28;20110;-73
2022/01/03 15:31:57;;;;;;;41.13;15.90;;;;;;;9.88;100.00;94584.44;10407826;28;20276;-75
2022/01/03 15:36:58;;;;;;;40.42;15.43;;;;;;;9.77;100.00;94597.09;10418949;28;20057;-74
2022/01/03 15:41:59;;;;;;;40.90;17.67;;;;;;;9.68;100.00;94586.06;10405470;28;20029;-76
2022/01/03 15:47:00;;;;;;;35.60;11.90;;;;;;;9.48;100.00;94575.38;10429047;28;20037;-74
2022/01/03 15:52:01;;;;;;;30.70;13.40;;;;;;;9.35;100.00;94556.09;10399479;28;20029;-72
2022/01/03 15:57:02;;;;;;;20.30;9.70;;;;;;;9.31;100.00;94563.06;10423115;28;20490;-74
2022/01/03 16:02:03;;;;;;;36.25;12.57;;;;;;;9.28;100.00;94570.81;10388131;28;20124;-75
2022/01/03 16:07:05;;;;;;;24.90;11.23;;;;;;;9.28;100.00;94585.06;10410357;28;20586;-76
2022/01/03 16:12:07;;;;;;;31.30;13.55;;;;;;;9.26;100.00;94595.22;10422758;28;20039;-76
2022/01/03 16:17:08;;;;;;;28.48;14.80;;;;;;;9.02;100.00;94606.47;10422210;28;20033;-72
2022/01/03 16:22:08;;;;;;;28.52;12.52;;;;;;;8.98;100.00;94618.78;10422427;28;20067;-71
2022/01/03 16:27:09;;;;;;;28.75;11.82;;;;;;;8.73;100.00;94630.25;10440499;28;20035;-74
2022/01/03 16:32:09;;;;;;;29.35;12.35;;;;;;;8.46;100.00;94646.53;10422316;28;20033;-74
2022/01/03 16:37:10;;;;;;;24.88;11.43;;;;;;;8.32;100.00;94655.00;10422656;28;20059;-73
2022/01/03 16:42:10;;;;;;;31.95;12.98;;;;;;;8.33;100.00;94656.63;10421446;28;20033;-79
2022/01/03 16:47:11;;;;;;;26.73;14.27;;;;;;;8.37;100.00;94636.28;10420493;28;20044;-74
2022/01/03 16:52:11;;;;;;;34.75;16.27;;;;;;;8.28;100.00;94639.72;10410990;28;20025;-74
2022/01/03 16:57:12;;;;;;;38.33;15.85;;;;;;;8.10;100.00;94638.28;10381058;28;20045;-75
2022/01/03 17:02:12;;;;;;;36.33;18.08;;;;;;;8.19;100.00;94618.81;10399301;28;20035;-74
2022/01/03 17:07:13;;;;;;;42.40;18.25;;;;;;;8.24;100.00;94623.38;10410260;28;20076;-75
2022/01/03 17:12:13;;;;;;;43.33;18.55;;;;;;;8.10;100.00;94635.63;10397992;28;20060;-74
2022/01/03 17:17:14;;;;;;;42.42;16.48;;;;;;;7.99;100.00;94648.13;10411517;28;20416;-74
2022/01/03 17:22:14;;;;;;;41.33;18.75;;;;;;;7.91;100.00;94657.47;10397563;28;20538;-73
2022/01/03 17:27:15;;;;;;;36.15;17.52;;;;;;;8.02;100.00;94663.66;10443389;28;20414;-72
2022/01/03 17:32:16;;;;;;;33.63;16.38;;;;;;;8.02;100.00;94669.00;10390785;28;20491;-71
2022/01/03 17:37:17;;;;;;;30.90;13.05;;;;;;;8.13;100.00;94670.69;10431487;28;20057;-72
2022/01/03 17:42:19;;;;;;;24.42;11.40;;;;;;;8.04;100.00;94678.41;10411516;28;20131;-77
2022/01/03 17:47:20;;;;;;;24.55;10.80;;;;;;;7.94;100.00;94658.78;10426374;28;20090;-78
2022/01/03 17:52:20;;;;;;;20.20;10.63;;;;;;;8.06;100.00;94653.25;10428422;28;20509;-78
2022/01/03 17:57:22;;;;;;;29.25;11.27;;;;;;;8.08;100.00;94673.34;10428398;28;20025;-71
2022/01/03 18:02:22;;;;;;;23.83;10.75;;;;;;;7.98;100.00;94668.75;10428254;28;20033;-77
2022/01/03 18:07:22;;;;;;;24.15;11.48;;;;;;;7.86;100.00;94666.25;10415953;28;20453;-71
2022/01/03 18:12:23;;;;;;;25.88;11.07;;;;;;;7.82;100.00;94680.41;10388579;28;20083;-77
2022/01/03 18:17:24;;;;;;;27.23;11.73;;;;;;;7.76;100.00;94671.53;10416569;28;20029;-78
2022/01/03 18:22:25;;;;;;;23.23;9.63;;;;;;;7.71;100.00;94674.16;10396197;28;20095;-74
2022/01/03 18:27:25;;;;;;;26.65;10.15;;;;;;;7.61;100.00;94661.53;10429372;28;20628;-78
2022/01/03 18:32:27;;;;;;;30.45;11.82;;;;;;;7.41;100.00;94672.03;10407910;28;20025;-73
2022/01/03 18:37:28;;;;;;;24.13;11.73;;;;;;;7.49;100.00;94671.59;10403715;28;20049;-72
2022/01/03 18:42:28;;;;;;;26.08;11.00;;;;;;;7.50;100.00;94670.53;10425445;28;20385;-72
2022/01/03 18:47:29;;;;;;;22.63;10.50;;;;;;;7.57;100.00;94686.38;10405895;28;20475;-73
2022/01/03 18:52:29;;;;;;;25.55;10.48;;;;;;;7.64;100.00;94695.78;10430935;28;20474;-71
2022/01/03 18:57:29;;;;;;;25.63;10.63;;;;;;;7.62;100.00;94713.97;10424418;28;20060;-72
2022/01/03 19:02:30;;;;;;;32.70;12.00;;;;;;;7.59;100.00;94730.53;10415515;28;20029;-72
2022/01/03 19:07:30;;;;;;;37.17;12.30;;;;;;;7.40;100.00;94715.91;10419266;28;20025;-75
2022/01/03 19:12:32;;;;;;;25.00;10.40;;;;;;;7.30;100.00;94752.16;10440798;28;20047;-76
2022/01/03 19:17:33;;;;;;;25.63;10.68;;;;;;;7.43;100.00;94776.91;10406292;28;20029;-72
2022/01/03 19:22:34;;;;;;;24.38;11.38;;;;;;;7.49;100.00;94778.53;10421717;28;20139;-72
2022/01/03 19:27:34;;;;;;;23.42;9.65;;;;;;;7.54;100.00;94775.94;10422179;28;20021;-80
2022/01/03 19:32:56;;;;;;;17.70;9.63;;;;;;;7.51;100.00;94776.44;10421993;28;20043;-73
2022/01/03 19:37:57;;;;;;;15.90;7.82;;;;;;;7.31;100.00;94787.72;10423634;28;20056;-72
2022/01/03 19:42:58;;;;;;;14.50;8.10;;;;;;;7.28;100.00;94767.63;10424803;28;20029;-72
2022/01/03 19:47:59;;;;;;;19.77;9.02;;;;;;;7.22;100.00;94774.00;10440971;28;20547;-74
2022/01/03 19:53:00;;;;;;;14.32;6.97;;;;;;;7.25;100.00;94753.97;10423275;28;20868;-70
2022/01/03 19:58:01;;;;;;;17.02;7.28;;;;;;;7.27;100.00;94750.00;10424632;28;20028;-73
2022/01/03 20:03:01;;;;;;;14.13;6.75;;;;;;;7.36;100.00;94769.88;10423788;28;20455;-75
2022/01/03 20:08:02;;;;;;;19.60;7.45;;;;;;;7.17;100.00;94774.75;10423785;28;20595;-76
2022/01/03 20:13:03;;;;;;;23.52;8.00;;;;;;;7.09;100.00;94777.88;10394732;28;20069;-73
2022/01/03 20:18:04;;;;;;;14.70;7.50;;;;;;;7.01;100.00;94778.31;10383161;28;20116;-70
2022/01/03 20:23:07;;;;;;;15.10;7.72;;;;;;;6.84;100.00;94775.72;10430427;28;20033;-75
2022/01/03 20:28:07;;;;;;;18.23;8.02;;;;;;;6.88;100.00;94766.13;10391893;28;20021;-72
2022/01/03 20:33:08;;;;;;;16.40;8.60;;;;;;;7.00;100.00;94772.16;10402871;28;20025;-72
2022/01/03 20:38:08;;;;;;;14.25;7.60;;;;;;;6.83;100.00;94771.41;10441112;28;20219;-71
2022/01/03 20:43:09;;;;;;;19.35;8.75;;;;;;;6.82;100.00;94770.63;10435408;28;20066;-72
2022/01/03 20:48:09;;;;;;;22.77;8.85;;;;;;;6.87;100.00;94761.84;10423686;28;20473;-69
2022/01/03 20:53:10;;;;;;;24.02;9.80;;;;;;;6.83;100.00;94745.50;10441071;28;20108;-74
2022/01/03 20:58:11;;;;;;;24.38;10.93;;;;;;;6.84;100.00;94738.31;10445266;28;20542;-74
2022/01/03 21:03:13;;;;;;;18.40;10.63;;;;;;;6.87;100.00;94743.16;10414349;28;20418;-70
2022/01/03 21:08:13;;;;;;;22.67;10.40;;;;;;;6.89;100.00;94754.38;10418394;28;20028;-73
2022/01/03 21:13:14;;;;;;;20.98;10.30;;;;;;;6.99;100.00;94741.16;10450071;28;20494;-73
2022/01/03 21:18:15;;;;;;;21.95;9.52;;;;;;;7.03;100.00;94736.09;10431547;28;20056;-71
2022/01/03 21:23:15;;;;;;;20.85;9.80;;;;;;;7.01;100.00;94736.34;10414727;28;20024;-78
2022/01/03 21:28:16;;;;;;;26.33;12.23;;;;;;;6.89;100.00;94726.88;10449287;28;20452;-72
2022/01/03 21:33:17;;;;;;;20.10;9.75;;;;;;;6.78;100.00;94758.81;10431330;28;20028;-78
2022/01/03 21:38:17;;;;;;;26.15;10.23;;;;;;;6.54;100.00;94760.88;10429922;28;20510;-72
2022/01/03 21:43:18;;;;;;;17.90;8.60;;;;;;;6.54;100.00;94749.41;10414129;28;20120;-71
2022/01/03 21:48:18;;;;;;;30.08;11.38;;;;;;;6.42;100.00;94739.66;10430191;28;20040;-77
2022/01/03 21:53:19;;;;;;;30.52;13.30;;;;;;;5.87;100.00;94746.56;10381426;28;20567;-71
2022/01/03 21:58:19;;;;;;;31.00;12.50;;;;;;;5.86;100.00;94758.31;10405270;28;20487;-70
2022/01/03 22:03:20;;;;;;;26.67;13.57;;;;;;;5.74;100.00;94747.69;10405431;28;20132;-71
2022/01/03 22:08:20;;;;;;;23.45;12.10;;;;;;;5.54;100.00;94755.34;10404194;28;20025;-70
2022/01/03 22:13:21;;;;;;;30.42;13.48;;;;;;;5.20;100.00;94758.75;10388592;28;20095;-70
2022/01/03 22:18:21;;;;;;;32.03;13.00;;;;;;;5.23;100.00;94771.63;10404677;28;20026;-77
2022/01/03 22:23:22;;;;;;;25.67;12.68;;;;;;;5.14;100.00;94759.72;10406276;28;20033;-72
2022/01/03 22:28:22;;;;;;;25.73;13.18;;;;;;;5.09;100.00;94764.94;10447298;28;20037;-70
2022/01/03 22:33:23;;;;;;;31.33;12.75;;;;;;;5.20;100.00;94755.31;10446508;28;20545;-75
2022/01/03 22:38:24;;;;;;;31.83;11.70;;;;;;;4.99;100.00;94746.13;10428450;28;20049;-71
2022/01/03 22:43:25;;;;;;;30.67;12.95;;;;;;;4.81;100.00;94729.28;10411852;28;20028;-72
2022/01/03 22:48:25;;;;;;;35.30;16.13;;;;;;;4.70;100.00;94738.94;10428409;28;20017;-75
2022/01/03 22:53:26;;;;;;;34.25;15.38;;;;;;;4.60;100.00;94728.06;10446483;28;20033;-70
2022/01/03 22:58:26;;;;;;;28.63;14.10;;;;;;;4.61;100.00;94729.69;10411642;28;20493;-70
2022/01/03 23:03:27;;;;;;;32.78;15.02;;;;;;;4.31;100.00;94716.56;10427724;28;20034;-71
2022/01/03 23:08:28;;;;;;;26.33;13.43;;;;;;;4.40;100.00;94720.47;10428157;28;20078;-73
2022/01/03 23:13:29;;;;;;;23.30;11.43;;;;;;;4.61;100.00;94721.69;10426826;28;20445;-72